Time;durP1;ratioP1;P1;durP2;ratioP2;P2;SDS_P1;SDS_P2;PMS_P1;PMS_P2;Temp;Humidity;BMP_temperature;BMP_pressure;BME280_temperature;BME280_humidity;BME280_pressure;Samples;Min_cycle;Max_cycle;Signal;HPM_P1;HPM_P2
2022/11/22 00:01:56;;;;;;;22.75;12.63;;;7.70;81.70;;;;;;5075932;28;20480;-16
2022/11/22 00:04:22;;;;;;;18.35;11.27;;;7.70;81.50;;;;;;5075848;28;20025;-16
2022/11/22 00:06:48;;;;;;;24.88;12.77;;;7.70;81.60;;;;;;5075318;28;20025;-17
2022/11/22 00:09:14;;;;;;;24.95;13.82;;;7.70;81.70;;;;;;5075842;28;20078;-17
2022/11/22 00:11:41;;;;;;;23.67;13.68;;;7.70;81.50;;;;;;5075470;28;20024;-17
2022/11/22 00:14:07;;;;;;;23.23;13.23;;;7.80;81.40;;;;;;5075518;28;20032;-17
2022/11/22 00:16:33;;;;;;;21.65;12.02;;;7.70;81.30;;;;;;5075730;28;20032;-18
2022/11/22 00:19:00;;;;;;;25.13;14.00;;;7.80;81.40;;;;;;5075426;28;20483;-17
2022/11/22 00:21:26;;;;;;;21.15;12.02;;;7.70;81.30;;;;;;5075081;28;20472;-16
2022/11/22 00:23:58;;;;;;;17.77;10.55;;;7.70;81.40;;;;;;5075293;28;20067;-18
2022/11/22 00:26:24;;;;;;;22.92;12.80;;;7.70;81.40;;;;;;5075199;28;20122;-18
2022/11/22 00:28:50;;;;;;;21.65;12.48;;;7.70;81.60;;;;;;5073704;28;20033;-17
2022/11/22 00:31:17;;;;;;;19.95;11.30;;;7.70;81.90;;;;;;5075090;28;20388;-18
2022/11/22 00:33:43;;;;;;;23.58;13.60;;;7.80;82.40;;;;;;5075241;28;20423;-17
2022/11/22 00:36:09;;;;;;;23.90;13.02;;;7.80;82.40;;;;;;5074954;28;20021;-15
2022/11/22 00:38:34;;;;;;;23.45;12.63;;;7.80;82.60;;;;;;5075309;28;20020;-17
2022/11/22 00:41:01;;;;;;;22.08;13.63;;;7.70;82.90;;;;;;5075552;28;20029;-18
2022/11/22 00:43:27;;;;;;;23.33;12.68;;;7.70;82.80;;;;;;5074982;28;20480;-18
2022/11/22 00:45:53;;;;;;;21.17;12.07;;;7.70;82.60;;;;;;5074796;28;20032;-17
2022/11/22 00:48:18;;;;;;;22.35;12.70;;;7.70;82.30;;;;;;5075046;28;20131;-17
2022/11/22 00:50:47;;;;;;;22.33;12.45;;;7.70;82.00;;;;;;5074740;28;20481;-18
2022/11/22 00:53:13;;;;;;;22.27;13.05;;;7.70;82.00;;;;;;5074509;28;20035;-18
2022/11/22 00:55:39;;;;;;;20.70;11.50;;;7.70;82.20;;;;;;5074845;28;20064;-18
2022/11/22 00:58:05;;;;;;;20.88;12.52;;;7.70;81.80;;;;;;5073313;28;20444;-16
2022/11/22 01:00:32;;;;;;;22.60;12.68;;;7.80;81.70;;;;;;5074419;28;20056;-17
2022/11/22 01:02:57;;;;;;;23.27;13.30;;;7.80;81.70;;;;;;5074163;28;20028;-17
2022/11/22 01:05:23;;;;;;;23.58;12.82;;;7.70;82.40;;;;;;5074254;28;20032;-17
2022/11/22 01:07:49;;;;;;;22.27;12.85;;;7.70;82.90;;;;;;5074662;28;20021;-16
2022/11/22 01:10:15;;;;;;;22.40;12.77;;;7.60;83.60;;;;;;5074298;28;20361;-18
2022/11/22 01:12:41;;;;;;;22.25;12.40;;;7.60;83.50;;;;;;5073647;28;20488;-18
2022/11/22 01:15:08;;;;;;;22.05;12.70;;;7.60;83.40;;;;;;5074217;28;20036;-18
2022/11/22 01:17:34;;;;;;;21.88;12.23;;;7.60;83.60;;;;;;5074384;28;20510;-16
2022/11/22 01:20:00;;;;;;;20.98;12.45;;;7.60;83.50;;;;;;5074527;28;20096;-18
2022/11/22 01:22:26;;;;;;;19.17;11.50;;;7.60;83.20;;;;;;5074022;28;20135;-17
2022/11/22 01:24:52;;;;;;;21.65;10.18;;;7.60;82.70;;;;;;5073839;28;20021;-16
2022/11/22 01:27:18;;;;;;;19.90;10.68;;;7.60;82.50;;;;;;5074496;28;20054;-16
2022/11/22 01:29:44;;;;;;;18.85;11.18;;;7.60;82.40;;;;;;5073910;28;20205;-18
2022/11/22 01:32:10;;;;;;;17.08;11.13;;;7.60;82.40;;;;;;5074202;28;20029;-16
2022/11/22 01:34:36;;;;;;;18.92;11.07;;;7.60;82.50;;;;;;5074049;28;20357;-16
2022/11/22 01:37:02;;;;;;;20.65;11.73;;;7.60;82.20;;;;;;5073838;28;20549;-18
2022/11/22 01:39:28;;;;;;;18.17;10.65;;;7.60;82.20;;;;;;5073778;28;20391;-19
2022/11/22 01:41:53;;;;;;;18.52;11.75;;;7.70;82.10;;;;;;5074085;28;20059;-18
2022/11/22 01:44:29;;;;;;;17.83;10.15;;;7.70;82.10;;;;;;5073750;28;20017;-16
2022/11/22 01:47:14;;;;;;;19.13;11.20;;;7.70;81.80;;;;;;5073445;28;20055;-15
2022/11/22 01:49:46;;;;;;;18.40;10.90;;;7.70;82.30;;;;;;5073562;28;20020;-15
2022/11/22 01:52:18;;;;;;;18.40;10.48;;;7.70;82.20;;;;;;5073952;28;20491;-18
2022/11/22 01:54:48;;;;;;;20.10;10.30;;;7.70;82.10;;;;;;5073429;28;20503;-16
2022/11/22 01:57:19;;;;;;;18.33;10.80;;;7.70;82.00;;;;;;5073457;28;20035;-18
2022/11/22 01:59:54;;;;;;;18.45;10.85;;;7.70;82.10;;;;;;5073525;28;20054;-18
2022/11/22 02:02:21;;;;;;;15.95;9.95;;;7.70;82.10;;;;;;5073673;28;20031;-17
2022/11/22 02:04:49;;;;;;;19.50;11.40;;;7.70;81.80;;;;;;5073920;28;20025;-20
2022/11/22 02:07:47;;;;;;;18.40;10.50;;;7.70;81.90;;;;;;5073648;28;20026;-15
2022/11/22 02:10:16;;;;;;;16.88;9.68;;;7.70;81.90;;;;;;5072073;28;20051;-18
2022/11/22 02:12:42;;;;;;;16.42;10.00;;;7.70;81.90;;;;;;5073579;28;20025;-17
2022/11/22 02:15:09;;;;;;;14.50;8.80;;;7.70;81.80;;;;;;5073220;28;20033;-18
2022/11/22 02:17:35;;;;;;;17.27;9.32;;;7.70;81.40;;;;;;5073478;28;20047;-19
2022/11/22 02:20:02;;;;;;;15.25;9.05;;;7.80;81.30;;;;;;5073081;28;20488;-18
2022/11/22 02:22:43;;;;;;;15.77;8.95;;;7.80;81.40;;;;;;5073171;28;20433;-17
2022/11/22 02:25:24;;;;;;;15.07;8.88;;;7.80;81.20;;;;;;5070953;28;20093;-19
2022/11/22 02:27:50;;;;;;;16.45;8.50;;;7.90;81.40;;;;;;5073077;28;20032;-16
2022/11/22 02:30:17;;;;;;;15.90;8.32;;;7.80;81.30;;;;;;5073247;28;20380;-17
2022/11/22 02:32:43;;;;;;;14.13;8.18;;;7.80;81.30;;;;;;5071857;28;20116;-17
2022/11/22 02:35:21;;;;;;;13.48;8.35;;;7.90;81.50;;;;;;5073022;28;20029;-18
2022/11/22 02:38:14;;;;;;;13.00;7.78;;;7.90;81.40;;;;;;5073388;28;20020;-16
2022/11/22 02:40:50;;;;;;;13.60;8.27;;;7.90;81.30;;;;;;5073157;28;20016;-18
2022/11/22 02:43:24;;;;;;;12.82;7.60;;;7.90;81.40;;;;;;5143118;22;20015;-20
2022/11/22 02:45:50;;;;;;;13.55;7.88;;;7.90;81.10;;;;;;5112825;22;20133;-15
2022/11/22 02:48:17;;;;;;;12.65;7.20;;;7.90;81.10;;;;;;5052865;28;20104;-18
2022/11/22 02:50:43;;;;;;;13.10;7.80;;;7.90;81.10;;;;;;5052838;28;20376;-17
2022/11/22 02:53:11;;;;;;;12.70;7.95;;;7.90;81.30;;;;;;5052659;28;20538;-18
2022/11/22 02:55:37;;;;;;;12.73;7.00;;;7.90;81.30;;;;;;5052870;28;20571;-18
2022/11/22 02:58:04;;;;;;;13.20;7.35;;;7.90;81.00;;;;;;5053121;28;20074;-18
2022/11/22 03:00:33;;;;;;;14.82;7.60;;;7.90;81.50;;;;;;5052714;28;20025;-18
2022/11/22 03:02:58;;;;;;;12.40;7.35;;;7.90;81.60;;;;;;5052579;28;20538;-17
2022/11/22 03:05:24;;;;;;;13.57;7.85;;;7.80;82.10;;;;;;5052939;28;20033;-19
2022/11/22 03:07:50;;;;;;;11.48;7.55;;;7.80;82.40;;;;;;5053088;28;20029;-19
2022/11/22 03:10:16;;;;;;;12.43;7.32;;;7.80;82.70;;;;;;5052847;28;20472;-18
2022/11/22 03:12:42;;;;;;;13.15;8.18;;;7.80;83.20;;;;;;5052657;28;20025;-18
2022/11/22 03:15:09;;;;;;;12.07;7.43;;;7.70;83.50;;;;;;5052234;28;20040;-18
2022/11/22 03:17:35;;;;;;;13.32;7.32;;;7.70;83.60;;;;;;5053186;28;20056;-18
2022/11/22 03:20:01;;;;;;;13.93;8.23;;;7.70;84.00;;;;;;5052896;28;20476;-18
2022/11/22 03:22:27;;;;;;;12.43;7.45;;;7.70;84.10;;;;;;5052716;28;20480;-17
2022/11/22 03:24:53;;;;;;;11.77;7.63;;;7.60;84.30;;;;;;5052602;28;20063;-18
2022/11/22 03:27:19;;;;;;;13.15;8.07;;;7.60;84.60;;;;;;5052526;28;20485;-17
2022/11/22 03:29:45;;;;;;;13.18;7.60;;;7.60;84.80;;;;;;5052380;28;20037;-19
2022/11/22 03:32:11;;;;;;;13.30;7.97;;;7.60;84.90;;;;;;5052557;28;20091;-17
2022/11/22 03:34:37;;;;;;;13.98;8.15;;;7.50;85.20;;;;;;5052645;28;20384;-18
2022/11/22 03:37:03;;;;;;;11.95;7.43;;;7.60;85.40;;;;;;5054687;28;20476;-16
2022/11/22 03:39:29;;;;;;;11.20;6.85;;;7.50;85.40;;;;;;5054830;28;20036;-18
2022/11/22 03:41:55;;;;;;;17.70;7.28;;;7.60;85.30;;;;;;5056371;28;20024;-18
2022/11/22 03:44:22;;;;;;;11.90;6.90;;;7.60;85.50;;;;;;5055965;28;20040;-17
2022/11/22 03:46:49;;;;;;;10.35;6.10;;;7.60;85.30;;;;;;5055747;28;20095;-15
2022/11/22 03:49:14;;;;;;;10.02;6.22;;;7.70;85.30;;;;;;5056215;28;20033;-19
2022/11/22 03:51:40;;;;;;;10.13;5.75;;;7.70;85.30;;;;;;5055866;28;20046;-17
2022/11/22 03:54:06;;;;;;;13.85;6.70;;;7.70;85.30;;;;;;5055727;28;20112;-16
2022/11/22 03:56:32;;;;;;;10.82;6.40;;;7.70;85.20;;;;;;5055774;28;20033;-19
2022/11/22 03:58:58;;;;;;;11.63;6.93;;;7.70;85.30;;;;;;5055631;28;20032;-18
2022/11/22 04:01:24;;;;;;;10.90;6.70;;;7.70;85.50;;;;;;5055669;28;20508;-18
2022/11/22 04:03:51;;;;;;;14.00;7.35;;;7.70;85.40;;;;;;5054677;28;20100;-17
2022/11/22 04:06:17;;;;;;;12.70;6.80;;;7.70;85.70;;;;;;5055948;28;20134;-16
2022/11/22 04:10:06;;;;;;;12.15;7.60;;;7.70;85.80;;;;;;5069754;27;20481;-13
2022/11/22 04:12:32;;;;;;;13.18;7.47;;;7.70;86.00;;;;;;5070377;28;20454;-13
2022/11/22 04:15:06;;;;;;;11.73;7.07;;;7.60;86.00;;;;;;5069945;28;20025;-13
2022/11/22 04:17:42;;;;;;;12.10;7.47;;;7.60;86.20;;;;;;5070630;28;20036;-13
2022/11/22 04:23:04;;;;;;;14.05;7.72;;;7.60;86.30;;;;;;5070218;28;20507;-14
2022/11/22 04:25:32;;;;;;;13.10;8.25;;;7.60;86.30;;;;;;5068785;28;20059;-13
2022/11/22 04:27:59;;;;;;;11.80;7.25;;;7.60;86.40;;;;;;5069763;28;20040;-13
2022/11/22 04:33:11;;;;;;;11.75;7.07;;;7.60;86.50;;;;;;5070043;28;20580;-11
2022/11/22 04:35:38;;;;;;;13.43;7.57;;;7.60;86.60;;;;;;5069828;28;20032;-12
2022/11/22 04:38:04;;;;;;;16.23;7.53;;;7.60;86.80;;;;;;5070073;28;20095;-12
2022/11/22 04:40:32;;;;;;;10.93;6.47;;;7.60;86.70;;;;;;5070461;28;20476;-12
2022/11/22 04:45:42;;;;;;;13.00;6.80;;;7.70;86.90;;;;;;5069893;28;20059;-11
2022/11/22 04:48:11;;;;;;;12.63;7.20;;;7.70;86.80;;;;;;5069622;28;20025;-12
2022/11/22 04:53:23;;;;;;;11.80;6.65;;;7.70;86.70;;;;;;5069853;28;20059;-15
2022/11/22 04:55:49;;;;;;;10.82;6.30;;;7.70;86.70;;;;;;5069392;28;20032;-13
2022/11/22 04:58:15;;;;;;;11.45;6.88;;;7.70;86.60;;;;;;5069472;28;20017;-12
2022/11/22 05:00:41;;;;;;;11.65;6.72;;;7.70;86.80;;;;;;5069272;28;20055;-13
2022/11/22 05:03:08;;;;;;;10.23;6.40;;;7.80;86.80;;;;;;5069132;28;20028;-13
2022/11/22 05:05:35;;;;;;;11.85;6.43;;;7.80;86.60;;;;;;5069189;28;20075;-13
2022/11/22 05:08:02;;;;;;;10.13;6.25;;;7.80;86.80;;;;;;5068847;28;20053;-13
2022/11/22 05:10:55;;;;;;;10.45;6.20;;;7.80;86.60;;;;;;5069096;28;20028;-13
2022/11/22 05:13:14;;;;;;;13.77;6.30;;;7.80;86.80;;;;;;5068987;28;20036;-13
2022/11/22 05:15:40;;;;;;;13.20;6.18;;;7.80;87.00;;;;;;5069157;28;20031;-14
2022/11/22 05:18:06;;;;;;;10.23;5.93;;;7.90;86.90;;;;;;5069056;28;20024;-12
2022/11/22 05:20:32;;;;;;;10.13;6.00;;;7.90;87.10;;;;;;5060495;28;20041;-14
2022/11/22 05:25:42;;;;;;;8.70;5.40;;;7.90;87.40;;;;;;5056131;28;20035;-13
2022/11/22 05:28:08;;;;;;;9.73;5.82;;;7.90;87.70;;;;;;5055545;28;20036;-13
2022/11/22 05:30:38;;;;;;;10.98;5.63;;;7.90;87.70;;;;;;5055698;28;20059;-13
2022/11/22 05:33:04;;;;;;;9.35;5.15;;;7.90;87.80;;;;;;5055237;28;20049;-14
2022/11/22 05:35:30;;;;;;;9.60;5.30;;;7.90;87.90;;;;;;5055445;28;20036;-14
2022/11/22 05:37:57;;;;;;;8.68;5.05;;;7.90;88.00;;;;;;5055965;28;20025;-13
2022/11/22 05:40:24;;;;;;;9.20;5.45;;;8.00;88.00;;;;;;5055877;28;20029;-13
2022/11/22 05:42:50;;;;;;;8.80;4.80;;;8.00;88.10;;;;;;5055883;28;20032;-14
2022/11/22 05:45:17;;;;;;;8.52;5.20;;;8.00;88.10;;;;;;5055135;28;20025;-13
2022/11/22 05:47:43;;;;;;;6.93;4.25;;;8.00;88.20;;;;;;5055074;28;20476;-15
2022/11/22 05:50:09;;;;;;;8.70;5.32;;;8.00;88.40;;;;;;5055299;28;20033;-13
2022/11/22 05:52:35;;;;;;;9.02;4.00;;;8.10;88.50;;;;;;5056261;28;20087;-15
2022/11/22 05:55:01;;;;;;;7.65;3.92;;;8.10;88.50;;;;;;5055203;28;20033;-13
2022/11/22 05:57:27;;;;;;;6.72;4.28;;;8.10;88.70;;;;;;5055492;28;20029;-13
2022/11/22 05:59:53;;;;;;;7.53;3.95;;;8.20;88.70;;;;;;5055734;28;20027;-14
2022/11/22 06:02:19;;;;;;;6.72;3.70;;;8.20;88.80;;;;;;5054934;28;20087;-15
2022/11/22 06:04:45;;;;;;;6.10;3.70;;;8.20;88.70;;;;;;5055404;28;20033;-13
2022/11/22 06:07:11;;;;;;;4.88;3.17;;;8.20;88.90;;;;;;5054670;28;20032;-14
2022/11/22 06:09:37;;;;;;;5.00;3.17;;;8.20;88.90;;;;;;5054581;28;20123;-14
2022/11/22 06:12:04;;;;;;;9.20;3.63;;;8.20;89.00;;;;;;5054773;28;20104;-14
2022/11/22 06:14:29;;;;;;;6.55;3.40;;;8.30;89.10;;;;;;5054892;28;20021;-15
2022/11/22 06:16:55;;;;;;;6.40;3.13;;;8.30;89.10;;;;;;5053252;28;20029;-15
2022/11/22 06:19:22;;;;;;;6.47;3.20;;;8.30;89.10;;;;;;5054610;28;20028;-15
2022/11/22 06:21:48;;;;;;;6.20;3.08;;;8.40;88.90;;;;;;5054858;28;20435;-14
2022/11/22 06:24:13;;;;;;;5.38;2.92;;;8.40;89.00;;;;;;5054731;28;20025;-14
2022/11/22 06:26:39;;;;;;;4.75;2.60;;;8.50;89.10;;;;;;5054450;28;20074;-14
2022/11/22 06:29:05;;;;;;;6.18;3.10;;;8.50;89.20;;;;;;5054185;28;20090;-15
2022/11/22 06:31:31;;;;;;;5.30;2.70;;;8.50;89.20;;;;;;5052109;28;20033;-13
2022/11/22 06:33:59;;;;;;;9.63;3.67;;;8.50;89.20;;;;;;5054625;28;20451;-14
2022/11/22 06:36:30;;;;;;;9.32;3.92;;;8.60;89.20;;;;;;5054302;28;20029;-14
2022/11/22 06:38:56;;;;;;;7.68;3.30;;;8.60;89.10;;;;;;5054163;28;20392;-13
2022/11/22 06:41:25;;;;;;;9.23;3.65;;;8.70;89.20;;;;;;5054461;28;20032;-14
2022/11/22 06:43:52;;;;;;;8.85;3.60;;;8.60;89.10;;;;;;5054573;28;20036;-15
2022/11/22 06:46:23;;;;;;;9.35;3.90;;;8.60;89.10;;;;;;5053976;28;20029;-14
2022/11/22 06:48:49;;;;;;;8.25;3.50;;;8.70;89.00;;;;;;5053840;28;20488;-14
2022/11/22 06:51:21;;;;;;;5.45;2.92;;;8.70;88.70;;;;;;5054632;28;20040;-13
2022/11/22 06:53:49;;;;;;;10.07;3.47;;;8.70;88.80;;;;;;5054179;28;20032;-12
2022/11/22 06:56:20;;;;;;;6.57;2.60;;;8.70;89.00;;;;;;5054239;28;20071;-11
2022/11/22 06:58:48;;;;;;;8.98;2.90;;;8.60;89.10;;;;;;5053821;28;20061;-14
2022/11/22 07:01:20;;;;;;;4.93;2.00;;;8.60;89.00;;;;;;5053929;28;20106;-15
2022/11/22 07:03:47;;;;;;;5.07;2.30;;;8.60;88.90;;;;;;5054381;28;20021;-13
2022/11/22 07:06:15;;;;;;;6.45;2.28;;;8.60;88.90;;;;;;5053993;28;20103;-14
2022/11/22 07:08:42;;;;;;;4.68;2.33;;;8.60;88.90;;;;;;5053319;28;20110;-13
2022/11/22 07:11:11;;;;;;;6.88;2.92;;;8.60;88.90;;;;;;5053359;28;20491;-14
2022/11/22 07:13:37;;;;;;;7.90;2.58;;;8.60;88.90;;;;;;5053622;28;20489;-13
2022/11/22 07:16:06;;;;;;;7.25;2.80;;;8.70;88.90;;;;;;5068906;28;20033;-12
2022/11/22 07:18:32;;;;;;;7.07;2.75;;;8.70;88.80;;;;;;5053838;28;20071;-13
2022/11/22 07:21:07;;;;;;;7.03;2.80;;;8.70;88.90;;;;;;5053550;28;20090;-13
2022/11/22 07:23:33;;;;;;;10.93;3.03;;;8.70;88.90;;;;;;5053419;28;20425;-14
2022/11/22 07:25:59;;;;;;;5.47;2.85;;;8.80;88.90;;;;;;5053299;28;20117;-13
2022/11/22 07:28:25;;;;;;;6.78;2.72;;;8.80;88.90;;;;;;5052027;28;20112;-13
2022/11/22 07:30:51;;;;;;;6.15;3.00;;;8.80;88.80;;;;;;5053210;28;20097;-13
2022/11/22 07:33:17;;;;;;;7.30;2.90;;;8.90;88.80;;;;;;5053557;28;20029;-13
2022/11/22 07:35:43;;;;;;;3.13;2.10;;;8.90;88.80;;;;;;5053484;28;20021;-13
2022/11/22 07:38:09;;;;;;;7.93;3.10;;;8.90;88.90;;;;;;5053126;28;20384;-13
2022/11/22 07:40:35;;;;;;;7.10;3.20;;;8.90;89.00;;;;;;5053373;28;20029;-13
2022/11/22 07:43:01;;;;;;;5.75;2.67;;;8.90;88.90;;;;;;5052905;28;20511;-12
2022/11/22 07:45:27;;;;;;;5.47;2.75;;;8.90;88.80;;;;;;5051731;28;20021;-13
2022/11/22 07:47:53;;;;;;;7.75;2.88;;;8.90;88.80;;;;;;5051613;28;20087;-12
2022/11/22 07:50:19;;;;;;;6.38;2.78;;;9.00;88.70;;;;;;5053154;28;20144;-13
2022/11/22 07:52:45;;;;;;;4.30;2.65;;;9.00;88.10;;;;;;5051686;28;20392;-13
2022/11/22 07:55:11;;;;;;;6.22;2.75;;;9.10;87.90;;;;;;5052938;28;20108;-13
2022/11/22 07:57:37;;;;;;;4.50;2.72;;;9.10;87.90;;;;;;5052140;28;20111;-13
2022/11/22 08:00:04;;;;;;;9.30;3.47;;;9.10;88.00;;;;;;5052721;28;20025;-14
2022/11/22 08:02:30;;;;;;;4.35;2.97;;;9.10;88.10;;;;;;5053088;28;20055;-14
2022/11/22 08:04:56;;;;;;;5.38;2.70;;;9.10;88.10;;;;;;5052874;28;20025;-14
2022/11/22 08:07:22;;;;;;;5.95;2.97;;;9.10;88.00;;;;;;5052723;28;20392;-14
2022/11/22 08:09:48;;;;;;;5.35;3.30;;;9.20;88.00;;;;;;5052463;28;20085;-14
2022/11/22 08:12:14;;;;;;;6.60;3.25;;;9.20;88.10;;;;;;5052759;28;20488;-15
2022/11/22 08:14:40;;;;;;;8.98;2.92;;;9.20;87.90;;;;;;5051341;28;20036;-14
2022/11/22 08:17:06;;;;;;;6.22;3.20;;;9.20;88.00;;;;;;5052918;28;21108;-14
2022/11/22 08:19:34;;;;;;;4.47;2.85;;;9.20;88.00;;;;;;5052637;28;20040;-14
2022/11/22 08:22:00;;;;;;;4.32;2.97;;;9.20;87.70;;;;;;5052691;28;20040;-14
2022/11/22 08:24:26;;;;;;;4.97;3.17;;;9.20;87.70;;;;;;5052859;28;20025;-15
2022/11/22 08:26:53;;;;;;;7.20;3.45;;;9.20;87.60;;;;;;5052798;28;20033;-15
2022/11/22 08:29:18;;;;;;;10.65;4.15;;;9.20;87.70;;;;;;5052421;28;20392;-14
2022/11/22 08:31:44;;;;;;;5.35;3.00;;;9.30;87.60;;;;;;5052703;28;20040;-15
2022/11/22 08:34:10;;;;;;;4.45;2.47;;;9.20;87.70;;;;;;5052480;28;20540;-14
2022/11/22 08:36:38;;;;;;;5.00;3.10;;;9.30;87.80;;;;;;5120207;22;20049;-21
2022/11/22 08:39:04;;;;;;;4.47;2.80;;;9.30;87.70;;;;;;5051059;28;20029;-21
2022/11/22 08:41:30;;;;;;;5.35;2.88;;;9.20;87.70;;;;;;5104091;22;20059;-15
2022/11/22 08:43:55;;;;;;;5.82;3.10;;;9.20;87.70;;;;;;5032775;28;20018;-17
2022/11/22 08:46:21;;;;;;;5.22;2.95;;;9.20;87.90;;;;;;5032584;28;20029;-16
2022/11/22 08:48:50;;;;;;;4.65;2.80;;;9.20;87.90;;;;;;5032673;28;20116;-18
2022/11/22 08:51:16;;;;;;;4.55;2.63;;;9.20;87.90;;;;;;5032779;28;20026;-18
2022/11/22 08:53:43;;;;;;;5.13;2.67;;;9.20;87.90;;;;;;5032545;28;20361;-17
2022/11/22 08:56:14;;;;;;;5.13;2.85;;;9.20;87.90;;;;;;5034968;28;20061;-17
2022/11/22 08:58:41;;;;;;;5.82;3.25;;;9.20;87.70;;;;;;5036220;28;20116;-16
2022/11/22 09:01:17;;;;;;;4.82;3.13;;;9.20;87.60;;;;;;5036610;28;20066;-19
2022/11/22 09:03:44;;;;;;;6.05;2.80;;;9.20;87.90;;;;;;5034957;28;20480;-16
2022/11/22 09:06:16;;;;;;;5.07;2.90;;;9.20;87.70;;;;;;5035958;28;20404;-18
2022/11/22 09:08:42;;;;;;;5.60;2.40;;;9.20;87.40;;;;;;5036331;28;20040;-16
2022/11/22 09:11:11;;;;;;;5.05;2.60;;;9.30;87.40;;;;;;5035875;28;20396;-17
2022/11/22 09:13:36;;;;;;;3.85;2.55;;;9.30;87.50;;;;;;5035946;28;20160;-18
2022/11/22 09:16:05;;;;;;;9.25;3.10;;;9.20;87.70;;;;;;5035863;28;20116;-15
2022/11/22 09:18:31;;;;;;;6.03;2.90;;;9.30;87.90;;;;;;5036209;28;20025;-18
2022/11/22 09:21:03;;;;;;;5.88;2.80;;;9.20;87.90;;;;;;5034441;28;20033;-17
2022/11/22 09:23:30;;;;;;;4.40;2.78;;;9.20;88.20;;;;;;5035985;28;20423;-17
2022/11/22 09:26:01;;;;;;;5.53;2.90;;;9.20;88.20;;;;;;5035528;28;20112;-18
2022/11/22 09:28:27;;;;;;;5.78;2.42;;;9.20;88.30;;;;;;5035568;28;20493;-18
2022/11/22 09:31:24;;;;;;;5.75;2.70;;;9.20;88.20;;;;;;5035537;28;20507;-17
2022/11/22 09:33:50;;;;;;;4.75;2.70;;;9.20;88.30;;;;;;5035244;28;20030;-14
2022/11/22 09:36:19;;;;;;;5.80;2.50;;;9.20;88.00;;;;;;5036000;28;20017;-16
2022/11/22 09:38:46;;;;;;;6.20;2.33;;;9.20;88.10;;;;;;5036361;28;20029;-14
2022/11/22 09:41:15;;;;;;;6.03;2.40;;;9.20;88.10;;;;;;5035279;28;20091;-15
2022/11/22 09:43:59;;;;;;;4.95;2.30;;;9.20;88.20;;;;;;5035383;28;20030;-16
2022/11/22 09:46:45;;;;;;;4.47;2.53;;;9.20;88.10;;;;;;5035643;28;20088;-15
2022/11/22 09:49:23;;;;;;;8.93;2.85;;;9.20;88.00;;;;;;5035677;28;20508;-16
2022/11/22 09:52:07;;;;;;;5.75;2.88;;;9.20;88.00;;;;;;5035275;28;20030;-16
2022/11/22 09:54:54;;;;;;;4.63;2.75;;;9.20;87.90;;;;;;5035813;28;20084;-16
2022/11/22 09:57:27;;;;;;;3.38;2.40;;;9.20;88.00;;;;;;5035661;28;20469;-17
2022/11/22 10:00:03;;;;;;;3.92;2.10;;;9.10;87.90;;;;;;5035097;28;20044;-18
2022/11/22 10:02:35;;;;;;;3.58;2.15;;;9.20;87.40;;;;;;5035249;28;20028;-18
2022/11/22 10:05:12;;;;;;;4.03;2.55;;;9.20;87.40;;;;;;5034783;28;20038;-17
2022/11/22 10:10:16;;;;;;;3.42;2.40;;;9.20;86.90;;;;;;5072397;28;20048;-20
2022/11/22 10:13:00;;;;;;;4.90;2.50;;;9.30;87.20;;;;;;5074933;28;20017;-21
2022/11/22 10:15:29;;;;;;;3.85;2.28;;;9.20;87.00;;;;;;5075413;28;20383;-22
2022/11/22 10:17:55;;;;;;;6.60;2.33;;;9.40;86.90;;;;;;5074398;28;20391;-20
2022/11/22 10:20:24;;;;;;;5.97;2.90;;;9.30;86.90;;;;;;5202032;22;20027;-13
2022/11/22 10:22:51;;;;;;;4.30;2.42;;;9.30;86.10;;;;;;5074406;28;20028;-17
2022/11/22 10:25:40;;;;;;;4.60;2.00;;;9.30;86.10;;;;;;5073175;28;20024;-16
2022/11/22 10:28:16;;;;;;;5.82;2.35;;;9.30;86.10;;;;;;5221367;22;20454;-14
2022/11/22 10:30:52;;;;;;;3.22;1.92;;;9.30;85.90;;;;;;5074588;28;20024;-15
2022/11/22 10:33:49;;;;;;;2.72;1.73;;;9.40;86.40;;;;;;5074434;28;20035;-16
2022/11/22 10:36:25;;;;;;;4.03;1.50;;;9.40;85.60;;;;;;5071158;28;20024;-15
2022/11/22 10:39:11;;;;;;;3.30;1.60;;;9.40;85.00;;;;;;5074385;28;20108;-16
2022/11/22 10:42:01;;;;;;;2.35;1.52;;;9.40;85.20;;;;;;5074182;28;20032;-16
2022/11/22 10:44:49;;;;;;;3.33;1.70;;;9.40;85.20;;;;;;5074441;28;20025;-16
2022/11/22 10:47:41;;;;;;;2.92;1.77;;;9.40;84.30;;;;;;5074456;28;20025;-14
2022/11/22 10:50:29;;;;;;;3.33;1.80;;;9.40;85.20;;;;;;5073636;28;20052;-15
2022/11/22 10:53:16;;;;;;;6.63;2.90;;;9.30;84.60;;;;;;5073809;28;20032;-14
2022/11/22 10:56:11;;;;;;;3.97;1.67;;;9.40;85.10;;;;;;5073910;28;20037;-15
2022/11/22 11:01:16;;;;;;;1.65;1.15;;;9.20;83.90;;;;;;5251090;22;20048;-17
2022/11/22 11:03:46;;;;;;;3.35;1.63;;;9.20;83.90;;;;;;5094192;28;20024;-16
2022/11/22 11:06:11;;;;;;;3.00;1.40;;;9.10;84.30;;;;;;5094122;28;20077;-16
2022/11/22 11:08:39;;;;;;;3.13;1.50;;;9.00;83.90;;;;;;5093903;28;20040;-15
2022/11/22 11:11:06;;;;;;;2.70;1.42;;;8.90;84.50;;;;;;5145760;22;20048;-13
2022/11/22 11:13:43;;;;;;;2.50;1.15;;;8.90;84.40;;;;;;5073640;28;20040;-17
2022/11/22 11:16:14;;;;;;;1.80;1.40;;;8.90;84.60;;;;;;5145335;22;20134;-17
2022/11/22 11:18:46;;;;;;;2.17;1.30;;;8.90;85.00;;;;;;5113043;22;20027;-11
2022/11/22 11:21:13;;;;;;;1.52;0.98;;;8.80;84.80;;;;;;5093721;28;20036;-17
2022/11/22 11:23:41;;;;;;;1.10;1.00;;;8.80;85.00;;;;;;5075544;28;20032;-16
2022/11/22 11:26:21;;;;;;;1.92;1.38;;;8.70;84.80;;;;;;5093755;28;20499;-17
2022/11/22 11:28:48;;;;;;;1.65;1.30;;;8.80;84.70;;;;;;5093264;28;20118;-15
2022/11/22 11:31:17;;;;;;;2.17;1.70;;;8.80;84.60;;;;;;5093839;28;20047;-18
2022/11/22 11:33:45;;;;;;;3.95;2.22;;;8.80;85.10;;;;;;5094137;28;20016;-16
2022/11/22 11:36:20;;;;;;;2.65;1.50;;;8.80;84.50;;;;;;5093490;28;20111;-15
2022/11/22 11:38:54;;;;;;;2.58;1.50;;;8.90;84.30;;;;;;5180886;22;20063;-18
2022/11/22 11:41:38;;;;;;;2.05;1.85;;;8.90;84.40;;;;;;5094254;28;20016;-16
2022/11/22 11:44:04;;;;;;;1.65;1.30;;;9.00;83.90;;;;;;5164160;22;20047;-17
2022/11/22 11:46:39;;;;;;;1.75;1.48;;;9.10;83.60;;;;;;5141591;22;20050;-14
2022/11/22 11:49:13;;;;;;;1.63;1.52;;;9.20;83.80;;;;;;5157479;22;20048;-20
2022/11/22 11:51:40;;;;;;;1.98;1.38;;;9.20;83.90;;;;;;5135952;22;20060;-15
2022/11/22 11:54:09;;;;;;;1.75;1.10;;;9.20;84.20;;;;;;5073020;28;20029;-15
2022/11/22 11:56:38;;;;;;;1.48;1.00;;;9.20;83.80;;;;;;5072900;28;20039;-13
2022/11/22 11:59:16;;;;;;;1.38;1.27;;;9.20;83.90;;;;;;5072729;28;20040;-16
2022/11/22 12:01:57;;;;;;;1.63;1.25;;;9.20;83.50;;;;;;5072955;28;20573;-14
2022/11/22 12:04:30;;;;;;;1.67;1.23;;;9.20;83.70;;;;;;5162802;22;20637;-17
2022/11/22 12:07:03;;;;;;;1.30;1.20;;;9.20;83.80;;;;;;5072869;28;20024;-17
2022/11/22 12:09:32;;;;;;;1.53;1.30;;;9.20;84.30;;;;;;5072872;28;20032;-13
2022/11/22 12:12:08;;;;;;;1.42;1.33;;;9.20;84.20;;;;;;5072825;28;20024;-15
2022/11/22 12:14:38;;;;;;;1.10;0.90;;;9.10;83.90;;;;;;5072778;28;20040;-17
2022/11/22 12:17:11;;;;;;;1.02;0.80;;;9.20;83.30;;;;;;5142514;22;20053;-20
2022/11/22 12:20:01;;;;;;;2.35;0.68;;;9.20;82.80;;;;;;5129112;22;20483;-14
2022/11/22 12:22:55;;;;;;;1.42;1.10;;;9.20;83.20;;;;;;5051092;28;20143;-16
2022/11/22 12:25:30;;;;;;;1.80;1.40;;;9.10;83.40;;;;;;5052978;28;20028;-16
2022/11/22 12:27:56;;;;;;;1.60;0.90;;;9.10;84.50;;;;;;5052614;28;20479;-16
2022/11/22 12:30:22;;;;;;;1.63;1.10;;;9.10;84.00;;;;;;5054446;28;20395;-17
2022/11/22 12:33:02;;;;;;;2.15;1.10;;;9.00;84.50;;;;;;5056581;28;20033;-16
2022/11/22 12:35:39;;;;;;;1.80;1.30;;;8.90;84.90;;;;;;5056665;28;20067;-15
2022/11/22 12:38:20;;;;;;;0.70;0.70;;;8.90;85.50;;;;;;5055403;28;20569;-15
2022/11/22 12:40:49;;;;;;;1.67;0.90;;;8.80;85.10;;;;;;5056772;28;20017;-15
2022/11/22 12:43:24;;;;;;;1.20;1.10;;;8.80;85.50;;;;;;5055240;28;20032;-15
2022/11/22 12:45:58;;;;;;;2.55;0.93;;;8.70;85.20;;;;;;5056742;28;20025;-16
2022/11/22 12:48:42;;;;;;;0.98;0.70;;;8.70;85.90;;;;;;5056366;28;20033;-16
2022/11/22 12:51:27;;;;;;;1.95;0.93;;;8.60;85.20;;;;;;5056067;28;20028;-14
2022/11/22 12:53:59;;;;;;;2.33;0.88;;;8.60;86.40;;;;;;5056330;28;20028;-17
2022/11/22 12:56:48;;;;;;;2.78;0.65;;;8.50;86.60;;;;;;5056457;28;20029;-17
2022/11/22 12:59:39;;;;;;;1.52;0.73;;;8.60;86.80;;;;;;5056400;28;20082;-16
2022/11/22 13:02:28;;;;;;;2.15;0.77;;;8.50;87.20;;;;;;5056414;28;20025;-16
2022/11/22 13:05:23;;;;;;;1.08;0.75;;;8.50;87.00;;;;;;5056164;28;20142;-16
2022/11/22 13:08:18;;;;;;;3.00;1.10;;;8.50;87.20;;;;;;5056458;28;20056;-18
2022/11/22 13:10:52;;;;;;;1.42;1.10;;;8.60;87.60;;;;;;5053917;28;20071;-15
2022/11/22 13:13:36;;;;;;;1.55;1.10;;;8.60;87.40;;;;;;5054724;28;20029;-16
2022/11/22 13:16:07;;;;;;;1.00;0.93;;;8.50;87.50;;;;;;5055915;28;20028;-15
2022/11/22 13:18:41;;;;;;;2.03;1.10;;;8.50;87.60;;;;;;5056068;28;20029;-16
2022/11/22 13:21:41;;;;;;;1.27;1.00;;;8.50;87.60;;;;;;5054014;28;20106;-16
2022/11/22 13:24:10;;;;;;;1.23;1.05;;;8.50;87.80;;;;;;5033658;28;20060;-15
2022/11/22 13:26:57;;;;;;;5.85;1.58;;;8.50;87.80;;;;;;5055832;28;20388;-15